Time;durP1;ratioP1;P1;durP2;ratioP2;P2;SDS_P1;SDS_P2;PMS_P1;PMS_P2;Temp;Humidity;BMP_temperature;BMP_pressure;BME280_temperature;BME280_humidity;BME280_pressure;Samples;Min_cycle;Max_cycle;Signal;HPM_P1;HPM_P2
2023/04/15 00:01:18;;;;;;;6.63;4.38;;;8.10;99.90;;;;;;5010958;28;20022;-50
2023/04/15 00:03:45;;;;;;;7.05;4.43;;;8.00;99.90;;;;;;5011091;28;20097;-52
2023/04/15 00:06:11;;;;;;;6.95;4.70;;;8.00;99.90;;;;;;5011164;28;20026;-50
2023/04/15 00:08:37;;;;;;;7.05;4.53;;;8.00;99.90;;;;;;5009799;28;20021;-52
2023/04/15 00:11:04;;;;;;;6.55;4.65;;;7.90;99.90;;;;;;5010620;28;20062;-47
2023/04/15 00:13:31;;;;;;;7.60;5.10;;;7.90;99.90;;;;;;5011243;28;20036;-52
2023/04/15 00:15:57;;;;;;;6.68;4.68;;;7.90;99.90;;;;;;5011452;28;20025;-49
2023/04/15 00:18:23;;;;;;;7.10;4.60;;;7.90;99.90;;;;;;5011045;28;20044;-49
2023/04/15 00:20:49;;;;;;;7.45;5.03;;;7.80;99.90;;;;;;5010754;28;20033;-51
2023/04/15 00:23:14;;;;;;;6.47;5.05;;;7.70;99.90;;;;;;5010819;28;20048;-55
2023/04/15 00:25:40;;;;;;;8.45;5.45;;;7.70;99.90;;;;;;4992704;28;20072;-49
2023/04/15 00:28:06;;;;;;;7.80;5.75;;;7.60;99.90;;;;;;5014595;28;20022;-48
2023/04/15 00:30:32;;;;;;;8.70;5.78;;;7.50;99.90;;;;;;5014503;28;20473;-52
2023/04/15 00:32:58;;;;;;;10.10;6.20;;;7.40;99.90;;;;;;5014268;28;20527;-51
2023/04/15 00:35:24;;;;;;;8.95;5.90;;;7.30;99.90;;;;;;5014541;28;20038;-51
2023/04/15 00:37:50;;;;;;;10.18;6.00;;;7.30;99.90;;;;;;5014456;28;20025;-48
2023/04/15 00:40:18;;;;;;;9.32;6.63;;;7.20;99.90;;;;;;5013984;28;20033;-49
2023/04/15 00:42:44;;;;;;;9.52;7.20;;;7.20;99.90;;;;;;5014371;28;20109;-48
2023/04/15 00:45:10;;;;;;;9.65;6.63;;;7.00;99.90;;;;;;5014432;28;20145;-59
2023/04/15 00:47:38;;;;;;;10.20;6.25;;;7.00;99.90;;;;;;5014074;28;20072;-49
2023/04/15 00:50:04;;;;;;;8.60;6.43;;;6.80;99.90;;;;;;5013187;28;20048;-50
2023/04/15 00:52:30;;;;;;;8.45;6.25;;;6.80;99.90;;;;;;5014343;28;20030;-49
2023/04/15 00:54:56;;;;;;;9.60;6.65;;;6.70;99.90;;;;;;5013907;28;20108;-53
2023/04/15 00:57:22;;;;;;;9.15;5.60;;;6.70;99.90;;;;;;5014073;28;20054;-50
2023/04/15 00:59:47;;;;;;;8.57;5.80;;;6.60;99.90;;;;;;5014048;28;20029;-49
2023/04/15 01:02:14;;;;;;;9.07;6.28;;;6.60;99.90;;;;;;5014229;28;20033;-48
2023/04/15 01:04:40;;;;;;;8.68;5.82;;;6.70;99.90;;;;;;5013521;28;20034;-46
2023/04/15 01:07:05;;;;;;;9.50;6.30;;;6.70;99.90;;;;;;5013946;28;20117;-49
2023/04/15 01:09:32;;;;;;;11.25;7.07;;;6.70;99.90;;;;;;5014058;28;20169;-51
2023/04/15 01:11:58;;;;;;;11.80;7.50;;;6.80;99.90;;;;;;5014098;28;20049;-49
2023/04/15 01:14:24;;;;;;;11.98;7.68;;;6.80;99.90;;;;;;5013834;28;20053;-47
2023/04/15 01:16:52;;;;;;;12.88;8.10;;;6.90;99.90;;;;;;5014066;28;20538;-52
2023/04/15 01:19:17;;;;;;;13.90;8.57;;;7.00;99.90;;;;;;5013683;28;20022;-53
2023/04/15 01:21:44;;;;;;;12.07;8.02;;;7.10;99.90;;;;;;5012724;28;20473;-48
2023/04/15 01:24:12;;;;;;;11.45;7.60;;;7.10;99.90;;;;;;5013424;28;20412;-50
2023/04/15 01:26:38;;;;;;;9.68;6.82;;;7.20;99.90;;;;;;5013768;28;20117;-52
2023/04/15 01:29:05;;;;;;;12.13;7.10;;;7.20;99.90;;;;;;5013253;28;20022;-51
2023/04/15 01:31:31;;;;;;;11.02;6.78;;;7.20;99.90;;;;;;5013477;28;20088;-50
2023/04/15 01:33:57;;;;;;;9.63;6.55;;;7.20;99.90;;;;;;5013268;28;20076;-48
2023/04/15 01:36:23;;;;;;;9.90;6.05;;;7.20;99.90;;;;;;5013181;28;20477;-48
2023/04/15 01:38:49;;;;;;;9.38;6.25;;;7.20;99.90;;;;;;5011413;28;20080;-48
2023/04/15 01:41:16;;;;;;;9.40;6.18;;;7.20;99.90;;;;;;5012562;28;20101;-51
2023/04/15 01:43:41;;;;;;;8.90;6.20;;;7.20;99.90;;;;;;5013427;28;20050;-48
2023/04/15 01:46:07;;;;;;;9.15;5.80;;;7.20;99.90;;;;;;5013222;28;20262;-48
2023/04/15 01:48:33;;;;;;;10.38;6.57;;;7.30;99.90;;;;;;5012910;28;20030;-49
2023/04/15 01:50:59;;;;;;;8.82;6.20;;;7.20;99.90;;;;;;5013054;28;20033;-48
2023/04/15 01:53:25;;;;;;;9.63;5.90;;;7.30;99.90;;;;;;5013035;28;20049;-50
2023/04/15 01:55:51;;;;;;;7.35;4.93;;;7.30;99.90;;;;;;5012655;28;20026;-48
2023/04/15 01:58:17;;;;;;;9.00;5.82;;;7.30;99.90;;;;;;5012698;28;20105;-50
2023/04/15 02:00:44;;;;;;;8.38;5.13;;;7.30;99.90;;;;;;5012941;28;20507;-48
2023/04/15 02:03:10;;;;;;;7.30;5.07;;;7.30;99.90;;;;;;5012804;28;20029;-48
2023/04/15 02:05:35;;;;;;;9.68;5.40;;;7.30;99.90;;;;;;5012644;28;20484;-47
2023/04/15 02:08:02;;;;;;;9.32;5.30;;;7.30;99.90;;;;;;5012580;28;20045;-54
2023/04/15 02:10:28;;;;;;;6.97;5.40;;;7.30;99.90;;;;;;5012440;28;20057;-47
2023/04/15 02:12:54;;;;;;;7.68;4.63;;;7.40;99.90;;;;;;5011658;28;20378;-48
2023/04/15 02:15:23;;;;;;;6.28;4.00;;;7.30;99.90;;;;;;5012901;28;20109;-48
2023/04/15 02:17:51;;;;;;;5.53;3.73;;;7.40;99.90;;;;;;5012449;28;20393;-51
2023/04/15 02:20:19;;;;;;;6.82;4.38;;;7.30;99.90;;;;;;5012414;28;20263;-54
2023/04/15 02:22:46;;;;;;;6.68;3.90;;;7.30;99.90;;;;;;5012556;28;20029;-48
2023/04/15 02:25:16;;;;;;;6.75;4.35;;;7.30;99.90;;;;;;5010734;28;20637;-47
2023/04/15 02:27:42;;;;;;;6.32;4.00;;;7.30;99.90;;;;;;5012130;28;20096;-50
2023/04/15 02:30:08;;;;;;;6.50;4.38;;;7.30;99.90;;;;;;5012407;28;20033;-50
2023/04/15 02:32:34;;;;;;;6.85;4.28;;;7.30;99.90;;;;;;5012314;28;20026;-48
2023/04/15 02:35:04;;;;;;;7.18;4.55;;;7.30;99.90;;;;;;5012151;28;20022;-48
2023/04/15 02:37:30;;;;;;;7.70;4.60;;;7.30;99.90;;;;;;5012200;28;20064;-48
2023/04/15 02:39:56;;;;;;;6.57;4.50;;;7.30;99.90;;;;;;5011869;28;20096;-49
2023/04/15 02:42:22;;;;;;;8.27;5.13;;;7.30;99.90;;;;;;5010657;28;20113;-49
2023/04/15 02:44:47;;;;;;;6.70;4.57;;;7.30;99.90;;;;;;5012180;28;20378;-48
2023/04/15 02:47:14;;;;;;;7.45;4.57;;;7.30;99.90;;;;;;5011679;28;20061;-50
2023/04/15 02:49:40;;;;;;;8.65;5.38;;;7.30;99.90;;;;;;5011622;28;20036;-48
2023/04/15 02:52:05;;;;;;;8.23;5.00;;;7.20;99.90;;;;;;5011769;28;20026;-48
2023/04/15 02:54:32;;;;;;;8.25;5.47;;;7.10;99.90;;;;;;5011805;28;20112;-48
2023/04/15 02:56:58;;;;;;;7.55;5.00;;;7.00;99.90;;;;;;5011327;28;20080;-47
2023/04/15 02:59:24;;;;;;;10.75;6.25;;;6.90;99.90;;;;;;5011841;28;20026;-47
2023/04/15 03:01:50;;;;;;;8.68;5.32;;;6.90;99.90;;;;;;5010275;28;20088;-48
2023/04/15 03:04:16;;;;;;;8.63;5.20;;;6.90;99.90;;;;;;5011675;28;20025;-48
2023/04/15 03:06:41;;;;;;;8.93;5.55;;;7.00;99.90;;;;;;5011685;28;20028;-47
2023/04/15 03:09:07;;;;;;;10.05;5.82;;;7.10;99.90;;;;;;5011721;28;20060;-48
2023/04/15 03:11:34;;;;;;;8.85;5.50;;;7.10;99.90;;;;;;5011555;28;20038;-47
2023/04/15 03:13:59;;;;;;;8.05;4.97;;;7.10;99.90;;;;;;5011067;28;20029;-48
2023/04/15 03:16:26;;;;;;;6.43;4.80;;;7.10;99.90;;;;;;5011034;28;20026;-49
2023/04/15 03:18:51;;;;;;;9.02;5.10;;;7.00;99.90;;;;;;5011287;28;20053;-48
2023/04/15 03:21:18;;;;;;;7.20;4.78;;;6.90;99.90;;;;;;5010138;28;20034;-48
2023/04/15 03:23:44;;;;;;;7.63;4.93;;;6.90;99.90;;;;;;5010588;28;20045;-47
2023/04/15 03:26:31;;;;;;;9.30;4.70;;;6.90;99.90;;;;;;5010814;28;20034;-47
2023/04/15 03:28:57;;;;;;;7.85;4.70;;;6.80;99.90;;;;;;5011163;28;20041;-48
2023/04/15 03:31:23;;;;;;;7.93;4.80;;;6.80;99.90;;;;;;5011550;28;20038;-48
2023/04/15 03:33:49;;;;;;;7.72;4.97;;;6.80;99.90;;;;;;5011545;28;20467;-52
2023/04/15 03:36:15;;;;;;;8.65;5.30;;;6.90;99.90;;;;;;5009923;28;20445;-50
2023/04/15 03:38:41;;;;;;;8.57;5.30;;;6.90;99.90;;;;;;5011409;28;20025;-52
2023/04/15 03:41:07;;;;;;;6.15;4.43;;;6.90;99.90;;;;;;5010918;28;20146;-50
2023/04/15 03:43:32;;;;;;;6.80;4.32;;;6.90;99.90;;;;;;5011100;28;20022;-48
2023/04/15 03:45:58;;;;;;;6.95;4.53;;;6.90;99.90;;;;;;5009469;28;20425;-53
2023/04/15 03:48:24;;;;;;;5.97;3.65;;;6.80;99.90;;;;;;5009554;28;20026;-55
2023/04/15 03:50:49;;;;;;;5.93;3.42;;;6.70;99.90;;;;;;5010851;28;20040;-50
2023/04/15 03:53:15;;;;;;;6.32;3.88;;;6.70;99.90;;;;;;5010877;28;20026;-48
2023/04/15 03:55:41;;;;;;;6.03;3.53;;;6.70;99.90;;;;;;5010504;28;20440;-51
2023/04/15 03:58:06;;;;;;;6.22;3.13;;;6.70;99.90;;;;;;5010528;28;20042;-50
2023/04/15 04:00:32;;;;;;;5.88;3.30;;;6.70;99.90;;;;;;5010265;28;20559;-56
2023/04/15 04:02:58;;;;;;;5.55;3.00;;;6.70;99.90;;;;;;5010692;28;20029;-48
2023/04/15 04:05:23;;;;;;;6.68;3.05;;;6.70;99.90;;;;;;5010839;28;20022;-53
2023/04/15 04:07:49;;;;;;;6.90;3.20;;;6.80;99.90;;;;;;5010742;28;20030;-53
2023/04/15 04:10:15;;;;;;;7.13;3.53;;;6.70;99.90;;;;;;5010251;28;20401;-54
2023/04/15 04:12:40;;;;;;;5.18;2.70;;;6.70;99.90;;;;;;5010849;28;20390;-54
2023/04/15 04:15:07;;;;;;;6.80;3.00;;;6.60;99.90;;;;;;5008758;28;20037;-48
2023/04/15 04:17:33;;;;;;;7.03;2.90;;;6.60;99.90;;;;;;5010302;28;20062;-47
2023/04/15 04:19:58;;;;;;;4.57;3.17;;;6.70;99.90;;;;;;5010494;28;20060;-49
2023/04/15 04:22:25;;;;;;;4.78;3.03;;;6.70;99.90;;;;;;5010009;28;20450;-51
2023/04/15 04:24:50;;;;;;;5.15;3.20;;;6.80;99.90;;;;;;5010521;28;20046;-49
2023/04/15 04:27:16;;;;;;;4.30;2.97;;;6.90;99.90;;;;;;5009821;28;20056;-48
2023/04/15 04:29:42;;;;;;;4.50;3.33;;;6.90;99.90;;;;;;5010065;28;20052;-48
2023/04/15 04:32:07;;;;;;;8.05;3.08;;;6.90;99.90;;;;;;5010036;28;20385;-52
2023/04/15 04:34:33;;;;;;;6.03;3.53;;;7.00;99.90;;;;;;5009978;28;20453;-49
2023/04/15 04:36:59;;;;;;;6.75;4.15;;;7.00;99.90;;;;;;5010168;28;20029;-48
2023/04/15 04:39:24;;;;;;;7.72;3.72;;;7.00;99.90;;;;;;5010241;28;20042;-51
2023/04/15 04:41:51;;;;;;;6.45;3.22;;;7.00;99.90;;;;;;5010375;28;20030;-49
2023/04/15 04:44:17;;;;;;;5.57;3.20;;;7.10;99.90;;;;;;5010393;28;20109;-49
2023/04/15 04:46:42;;;;;;;5.25;3.65;;;7.00;99.90;;;;;;5010255;28;20108;-51
2023/04/15 04:49:08;;;;;;;6.93;3.65;;;7.10;99.90;;;;;;5010289;28;20469;-48
2023/04/15 04:51:34;;;;;;;6.85;3.38;;;7.10;99.90;;;;;;5010350;28;20026;-48
2023/04/15 04:53:59;;;;;;;4.97;3.45;;;7.10;99.90;;;;;;5010317;28;20026;-52
2023/04/15 04:56:25;;;;;;;5.78;3.25;;;7.10;99.90;;;;;;5010158;28;20037;-51
2023/04/15 04:58:51;;;;;;;6.15;3.13;;;7.10;99.90;;;;;;5010102;28;20061;-52
2023/04/15 05:01:17;;;;;;;6.25;4.00;;;7.20;99.90;;;;;;5010547;28;20069;-51
2023/04/15 05:03:43;;;;;;;4.65;3.03;;;7.20;99.90;;;;;;5009712;28;20042;-49
2023/04/15 05:06:09;;;;;;;5.00;3.53;;;7.20;99.90;;;;;;5009541;28;20477;-48
2023/04/15 05:08:35;;;;;;;4.85;3.40;;;7.20;99.90;;;;;;5009815;28;20028;-48
2023/04/15 05:11:01;;;;;;;5.85;3.35;;;7.20;99.90;;;;;;5010075;28;20026;-52
2023/04/15 05:13:26;;;;;;;5.65;3.22;;;7.20;99.90;;;;;;5012354;28;20018;-50
2023/04/15 05:15:52;;;;;;;5.93;3.70;;;7.20;99.90;;;;;;5013627;28;20029;-48
2023/04/15 05:18:18;;;;;;;6.28;4.20;;;7.20;99.90;;;;;;5013924;28;20041;-48
2023/04/15 05:20:43;;;;;;;5.20;3.70;;;7.20;99.90;;;;;;5013470;28;20022;-49
2023/04/15 05:23:09;;;;;;;6.05;3.80;;;7.20;99.90;;;;;;5013023;28;20776;-52
2023/04/15 05:25:35;;;;;;;5.30;3.70;;;7.20;99.90;;;;;;5012718;28;20025;-50
2023/04/15 05:28:00;;;;;;;6.30;3.67;;;7.30;99.90;;;;;;5012731;28;20030;-50
2023/04/15 05:30:26;;;;;;;6.30;3.78;;;7.30;99.90;;;;;;5012578;28;20040;-53
2023/04/15 05:32:51;;;;;;;6.25;3.85;;;7.30;99.90;;;;;;5012910;28;20093;-52
2023/04/15 05:35:17;;;;;;;5.82;3.30;;;7.30;99.90;;;;;;5012757;28;20481;-51
2023/04/15 05:37:43;;;;;;;6.28;3.22;;;7.30;99.90;;;;;;5013225;28;20029;-49
2023/04/15 05:40:09;;;;;;;5.28;3.45;;;7.30;99.90;;;;;;5013335;28;20030;-49
2023/04/15 05:42:35;;;;;;;6.78;3.25;;;7.40;99.90;;;;;;5013121;28;20041;-49
2023/04/15 05:45:04;;;;;;;5.65;3.40;;;7.40;99.90;;;;;;5013575;28;20022;-50
2023/04/15 05:47:30;;;;;;;5.18;3.13;;;7.40;99.90;;;;;;5011665;28;20025;-48
2023/04/15 05:49:57;;;;;;;5.38;3.20;;;7.40;99.90;;;;;;5013224;28;20038;-48
2023/04/15 05:52:23;;;;;;;4.30;3.03;;;7.40;99.90;;;;;;5013335;28;20033;-51
2023/04/15 05:54:49;;;;;;;4.72;3.33;;;7.50;99.90;;;;;;5013315;28;20038;-52
2023/04/15 05:57:15;;;;;;;4.50;3.05;;;7.50;99.90;;;;;;5010866;28;20092;-48
2023/04/15 05:59:41;;;;;;;4.72;3.28;;;7.60;99.90;;;;;;5012910;28;20059;-49
2023/04/15 06:02:08;;;;;;;4.43;2.78;;;7.60;99.90;;;;;;5013033;28;20018;-48
2023/04/15 06:04:34;;;;;;;4.05;2.85;;;7.70;99.90;;;;;;5012728;28;20405;-48
2023/04/15 06:07:00;;;;;;;4.18;2.85;;;7.80;99.90;;;;;;5011995;28;20076;-50
2023/04/15 06:09:25;;;;;;;4.32;2.92;;;7.80;99.90;;;;;;5018072;28;20096;-47
2023/04/15 06:11:52;;;;;;;4.70;3.00;;;8.00;99.90;;;;;;5012275;28;20030;-47
2023/04/15 06:14:17;;;;;;;5.00;2.90;;;8.30;99.90;;;;;;5012744;28;20036;-49
2023/04/15 06:16:43;;;;;;;5.25;2.97;;;8.60;99.90;;;;;;5012655;28;20101;-51
2023/04/15 06:19:08;;;;;;;3.20;2.70;;;8.90;99.90;;;;;;5012637;28;20026;-50
2023/04/15 06:21:34;;;;;;;3.40;2.40;;;8.90;99.90;;;;;;5012351;28;20037;-50
2023/04/15 06:24:00;;;;;;;3.97;2.67;;;8.90;99.90;;;;;;5011624;28;20055;-48
2023/04/15 06:26:27;;;;;;;5.25;2.78;;;9.00;99.90;;;;;;5012252;28;20037;-48
2023/04/15 06:28:52;;;;;;;4.93;3.28;;;9.10;99.90;;;;;;5012235;28;20025;-51
2023/04/15 06:31:18;;;;;;;4.00;2.58;;;9.00;99.90;;;;;;5012052;28;20040;-47
2023/04/15 06:33:43;;;;;;;4.90;3.13;;;8.90;99.90;;;;;;5012306;28;20049;-48
2023/04/15 06:36:09;;;;;;;4.50;2.53;;;8.80;99.90;;;;;;5010862;28;20087;-48
2023/04/15 06:38:35;;;;;;;4.13;2.92;;;8.80;99.90;;;;;;5012169;28;20105;-48
2023/04/15 06:41:01;;;;;;;5.47;2.90;;;8.80;99.90;;;;;;5012046;28;20026;-49
2023/04/15 06:43:27;;;;;;;5.63;3.15;;;8.70;99.90;;;;;;5011789;28;20124;-51
2023/04/15 06:45:53;;;;;;;5.07;2.88;;;8.70;99.90;;;;;;5012117;28;20129;-48
2023/04/15 06:48:18;;;;;;;3.97;2.70;;;8.70;99.90;;;;;;5012443;28;20056;-49
2023/04/15 06:50:44;;;;;;;5.30;3.30;;;8.70;99.90;;;;;;5012051;28;20420;-49
2023/04/15 06:53:10;;;;;;;4.18;2.95;;;8.70;99.90;;;;;;5011979;28;20388;-48
2023/04/15 06:55:35;;;;;;;6.10;3.60;;;8.70;99.90;;;;;;5011387;28;20116;-51
2023/04/15 06:58:01;;;;;;;5.85;3.03;;;8.70;99.90;;;;;;5011150;28;20520;-49
2023/04/15 07:00:27;;;;;;;4.93;3.30;;;8.80;99.90;;;;;;5011925;28;20524;-48
2023/04/15 07:02:54;;;;;;;4.82;3.10;;;8.70;99.90;;;;;;5011990;28;20028;-49
2023/04/15 07:05:20;;;;;;;4.82;3.20;;;8.70;99.90;;;;;;5010231;28;20506;-49
2023/04/15 07:07:45;;;;;;;6.03;3.30;;;8.70;99.90;;;;;;5011799;28;20030;-50
2023/04/15 07:10:11;;;;;;;4.82;3.22;;;8.70;99.90;;;;;;5011288;28;20038;-51
2023/04/15 07:12:36;;;;;;;5.95;3.30;;;8.80;99.90;;;;;;5011440;28;20495;-49
2023/04/15 07:15:03;;;;;;;6.53;4.10;;;8.90;99.90;;;;;;5011169;28;20033;-48
2023/04/15 07:17:28;;;;;;;6.65;4.00;;;9.00;99.90;;;;;;5011373;28;20120;-52
2023/04/15 07:19:54;;;;;;;5.75;3.45;;;9.10;99.90;;;;;;5011629;28;20109;-51
2023/04/15 07:22:19;;;;;;;5.30;3.83;;;9.00;99.90;;;;;;5011327;28;20400;-50
2023/04/15 07:24:45;;;;;;;5.85;4.05;;;9.00;99.90;;;;;;5011618;28;20030;-54
2023/04/15 07:27:11;;;;;;;6.88;4.32;;;8.90;99.90;;;;;;5010968;28;20113;-48
2023/04/15 07:29:36;;;;;;;7.88;4.35;;;8.80;99.90;;;;;;5011390;28;20014;-48
2023/04/15 07:32:02;;;;;;;6.00;4.00;;;8.80;99.90;;;;;;5011382;28;20030;-50
2023/04/15 07:34:28;;;;;;;6.10;4.50;;;8.80;99.90;;;;;;5009669;28;20038;-51
2023/04/15 07:36:54;;;;;;;7.07;4.25;;;8.80;99.90;;;;;;5008494;28;20104;-53
2023/04/15 07:39:19;;;;;;;9.45;4.20;;;8.80;99.90;;;;;;5009278;28;20534;-50
2023/04/15 07:41:45;;;;;;;6.43;4.18;;;8.80;99.90;;;;;;5009421;28;20057;-49
2023/04/15 07:44:11;;;;;;;6.35;4.78;;;9.00;99.90;;;;;;5008208;28;20092;-53
2023/04/15 07:46:37;;;;;;;5.63;4.50;;;9.20;99.90;;;;;;5009565;28;20018;-50
2023/04/15 07:49:03;;;;;;;5.20;3.97;;;9.30;99.90;;;;;;5010163;28;20034;-51
2023/04/15 07:51:29;;;;;;;6.95;4.03;;;9.70;99.90;;;;;;5010965;28;20077;-49
2023/04/15 07:53:55;;;;;;;4.85;3.65;;;9.80;99.90;;;;;;5010949;28;20072;-49
2023/04/15 07:56:21;;;;;;;8.25;4.38;;;9.80;99.90;;;;;;5010879;28;20050;-51
2023/04/15 07:58:46;;;;;;;5.38;3.65;;;9.80;99.90;;;;;;5011031;28;20100;-55
2023/04/15 08:01:12;;;;;;;5.50;3.70;;;9.70;99.90;;;;;;5010960;28;20042;-49
2023/04/15 08:03:38;;;;;;;5.80;4.00;;;9.60;99.90;;;;;;5010857;28;20378;-54
2023/04/15 08:06:03;;;;;;;5.72;4.40;;;9.50;99.90;;;;;;5010914;28;20489;-52
2023/04/15 08:08:29;;;;;;;6.53;4.07;;;9.60;99.90;;;;;;5010808;28;20034;-55
2023/04/15 08:10:56;;;;;;;6.32;4.07;;;9.60;99.90;;;;;;5011004;28;20034;-55
2023/04/15 08:13:22;;;;;;;5.30;3.92;;;9.70;99.90;;;;;;5010733;28;20022;-55
2023/04/15 08:16:13;;;;;;;6.60;3.78;;;9.90;99.90;;;;;;5010776;28;20033;-49
2023/04/15 08:18:39;;;;;;;6.43;3.85;;;10.10;99.90;;;;;;5010145;28;20058;-49
2023/04/15 08:21:04;;;;;;;5.38;3.80;;;10.30;99.90;;;;;;5010897;28;20713;-48
2023/04/15 08:23:31;;;;;;;4.80;3.33;;;10.30;99.90;;;;;;5010787;28;20474;-48
2023/04/15 08:25:57;;;;;;;4.45;3.50;;;10.30;99.90;;;;;;5010511;28;20029;-50
2023/04/15 08:28:22;;;;;;;4.25;3.20;;;10.30;99.90;;;;;;5010702;28;20026;-48
2023/04/15 08:30:48;;;;;;;4.85;3.47;;;10.60;99.90;;;;;;5010560;28;20505;-49
2023/04/15 08:33:14;;;;;;;4.20;3.33;;;10.60;99.90;;;;;;5010453;28;20029;-55
2023/04/15 08:35:39;;;;;;;4.45;3.15;;;10.90;99.90;;;;;;5010538;28;20030;-48
2023/04/15 08:38:05;;;;;;;4.70;3.20;;;11.10;99.90;;;;;;5010656;28;20085;-52
2023/04/15 08:40:39;;;;;;;5.07;2.80;;;11.20;99.90;;;;;;5010636;28;20358;-49
2023/04/15 08:43:11;;;;;;;4.25;2.83;;;11.10;99.90;;;;;;5010627;28;20026;-48
2023/04/15 08:45:41;;;;;;;4.40;3.00;;;11.10;99.90;;;;;;5010535;28;20030;-51
2023/04/15 08:48:08;;;;;;;;;;;11.40;99.90;;;;;;5012964;28;20489;-50
2023/04/15 08:50:34;;;;;;;3.95;2.50;;;11.30;99.90;;;;;;5014313;28;19921;-50
2023/04/15 08:53:00;;;;;;;3.58;2.60;;;11.20;99.90;;;;;;5014170;28;20469;-50
2023/04/15 08:55:35;;;;;;;3.63;2.85;;;11.40;99.90;;;;;;5014463;28;20022;-47
2023/04/15 08:58:01;;;;;;;3.78;2.35;;;11.70;99.90;;;;;;5013737;28;20496;-48
2023/04/15 09:00:32;;;;;;;4.45;2.60;;;11.90;99.90;;;;;;5014118;28;20374;-49
2023/04/15 09:02:58;;;;;;;3.05;2.17;;;12.40;99.90;;;;;;5014250;28;20497;-48
2023/04/15 09:05:24;;;;;;;3.50;2.10;;;12.80;99.90;;;;;;5014268;28;20034;-49
2023/04/15 09:07:50;;;;;;;3.25;2.08;;;12.70;99.90;;;;;;5014099;28;20032;-51
2023/04/15 09:10:16;;;;;;;3.63;2.20;;;13.20;99.90;;;;;;5013853;28;20388;-53
2023/04/15 09:12:42;;;;;;;5.75;2.05;;;13.40;99.90;;;;;;5013971;28;20022;-46
2023/04/15 09:15:11;;;;;;;4.03;2.00;;;14.60;99.90;;;;;;5013875;28;20030;-50
2023/04/15 09:17:44;;;;;;;3.10;1.90;;;15.00;99.90;;;;;;5013810;28;20046;-48
2023/04/15 09:20:15;;;;;;;3.60;1.90;;;16.10;99.90;;;;;;5013562;28;20034;-50
2023/04/15 09:22:42;;;;;;;3.63;1.60;;;16.90;99.90;;;;;;5013836;28;20030;-49
2023/04/15 09:25:28;;;;;;;1.75;1.27;;;17.10;99.90;;;;;;5013884;28;20026;-48
2023/04/15 09:27:59;;;;;;;2.40;1.50;;;18.20;99.90;;;;;;5014075;28;20548;-51
2023/04/15 09:30:27;;;;;;;2.28;1.40;;;16.70;97.30;;;;;;5013545;28;20045;-49
2023/04/15 09:32:54;;;;;;;2.28;1.30;;;16.10;98.90;;;;;;5013690;28;20018;-48
2023/04/15 09:35:21;;;;;;;2.22;1.50;;;16.00;99.90;;;;;;5013622;28;20416;-48
2023/04/15 09:37:47;;;;;;;4.50;1.60;;;16.80;99.90;;;;;;5013517;28;20105;-48
2023/04/15 09:40:13;;;;;;;1.90;1.30;;;16.90;98.60;;;;;;5013407;28;20097;-48
2023/04/15 09:42:55;;;;;;;2.20;1.48;;;17.70;99.90;;;;;;5013416;28;20109;-49
2023/04/15 09:45:21;;;;;;;1.90;1.40;;;17.90;97.30;;;;;;5013533;28;20026;-48
2023/04/15 09:47:47;;;;;;;2.42;1.50;;;17.90;96.80;;;;;;5012694;28;20025;-48
2023/04/15 09:50:13;;;;;;;2.97;1.70;;;18.60;95.50;;;;;;5011971;28;20132;-50
2023/04/15 09:52:43;;;;;;;2.65;1.52;;;19.20;90.90;;;;;;5013391;28;20036;-50
2023/04/15 09:55:09;;;;;;;2.45;1.60;;;18.40;92.90;;;;;;5013491;28;20500;-48
2023/04/15 09:57:36;;;;;;;3.83;1.60;;;18.90;93.30;;;;;;5013065;28;20489;-51
2023/04/15 10:00:07;;;;;;;2.85;1.42;;;21.10;91.20;;;;;;5011906;28;20032;-49
2023/04/15 10:02:34;;;;;;;2.85;1.38;;;19.80;82.90;;;;;;5013104;28;20037;-51
2023/04/15 10:05:00;;;;;;;2.42;1.45;;;18.70;85.90;;;;;;5012804;28;20481;-51
2023/04/15 10:07:26;;;;;;;2.95;1.60;;;17.60;88.60;;;;;;5013065;28;20037;-47
2023/04/15 10:09:52;;;;;;;5.72;1.88;;;16.00;91.00;;;;;;5012744;28;20452;-54
2023/04/15 10:12:19;;;;;;;3.33;1.90;;;15.20;93.60;;;;;;5012786;28;20045;-50
2023/04/15 10:14:51;;;;;;;2.70;1.80;;;14.60;96.30;;;;;;5012869;28;20080;-48
2023/04/15 10:17:20;;;;;;;3.60;1.77;;;14.00;98.90;;;;;;5012045;28;20022;-48
2023/04/15 10:19:47;;;;;;;3.80;1.80;;;13.70;99.90;;;;;;5012699;28;20555;-50
2023/04/15 10:22:14;;;;;;;5.88;2.22;;;13.00;99.90;;;;;;5012583;28;20109;-47
2023/04/15 10:24:39;;;;;;;6.38;2.60;;;12.60;99.90;;;;;;5012591;28;20032;-51
2023/04/15 10:27:07;;;;;;;7.05;2.90;;;12.50;99.90;;;;;;5015055;28;20026;-47
2023/04/15 10:29:33;;;;;;;3.67;2.28;;;12.40;99.90;;;;;;5014293;28;20380;-48
2023/04/15 10:32:00;;;;;;;3.40;2.22;;;12.40;99.90;;;;;;5012217;28;20049;-50
2023/04/15 10:34:26;;;;;;;5.03;2.60;;;12.60;99.90;;;;;;5011348;28;20028;-50
2023/04/15 10:36:57;;;;;;;8.60;2.90;;;12.50;99.90;;;;;;5012420;28;20026;-47
2023/04/15 10:39:42;;;;;;;6.25;2.72;;;12.70;99.90;;;;;;5012069;28;20030;-47
2023/04/15 10:42:14;;;;;;;4.10;2.05;;;13.40;99.90;;;;;;5012106;28;20026;-50
2023/04/15 10:44:42;;;;;;;7.05;2.13;;;14.20;99.90;;;;;;5011512;28;20263;-46
2023/04/15 10:47:19;;;;;;;5.45;2.65;;;15.10;99.90;;;;;;5011590;28;20037;-53
2023/04/15 10:50:02;;;;;;;5.40;2.50;;;15.80;99.90;;;;;;5009898;28;20030;-52
2023/04/15 10:52:28;;;;;;;6.65;2.70;;;17.20;99.90;;;;;;5011926;28;20126;-51
2023/04/15 10:55:17;;;;;;;5.15;2.47;;;17.80;96.80;;;;;;5011668;28;20194;-53
2023/04/15 10:57:43;;;;;;;4.72;2.17;;;19.30;94.30;;;;;;5004260;28;20076;-49
2023/04/15 11:00:16;;;;;;;5.35;2.03;;;20.70;91.20;;;;;;5011727;28;20441;-46
2023/04/15 11:02:55;;;;;;;4.82;1.83;;;21.40;84.10;;;;;;5012041;28;20109;-50
2023/04/15 11:05:39;;;;;;;6.57;2.50;;;21.80;81.40;;;;;;4995460;28;20081;-48
2023/04/15 11:08:05;;;;;;;5.50;2.58;;;21.70;71.00;;;;;;4992437;28;20504;-46
2023/04/15 11:10:31;;;;;;;4.13;2.55;;;21.20;75.60;;;;;;5009345;28;20038;-47
2023/04/15 11:12:57;;;;;;;4.30;2.10;;;22.80;78.50;;;;;;5011818;28;20049;-46
2023/04/15 11:15:34;;;;;;;4.22;2.08;;;24.00;71.80;;;;;;5011470;28;20022;-49
2023/04/15 11:18:18;;;;;;;6.53;2.40;;;24.20;68.50;;;;;;5011416;28;20109;-47
2023/04/15 11:20:52;;;;;;;7.35;2.47;;;23.90;65.10;;;;;;5011467;28;20028;-48
2023/04/15 11:23:19;;;;;;;4.43;2.25;;;22.80;66.80;;;;;;5008225;28;20030;-47
2023/04/15 11:25:45;;;;;;;6.20;2.25;;;22.60;66.70;;;;;;5009823;28;20037;-48
2023/04/15 11:28:12;;;;;;;4.82;2.30;;;22.80;66.30;;;;;;5009859;28;20109;-52
2023/04/15 11:30:39;;;;;;;4.80;2.35;;;22.70;67.90;;;;;;5007076;28;20562;-47
2023/04/15 11:33:09;;;;;;;6.00;2.78;;;22.40;67.20;;;;;;5008109;28;20385;-48
2023/04/15 11:35:35;;;;;;;6.20;2.33;;;21.80;63.70;;;;;;5006472;28;20034;-48
2023/04/15 11:38:05;;;;;;;5.22;2.67;;;22.10;68.90;;;;;;5005744;28;20033;-49
2023/04/15 11:40:32;;;;;;;5.25;2.30;;;21.60;65.70;;;;;;5002326;28;20040;-51
2023/04/15 11:43:10;;;;;;;5.57;2.28;;;21.90;68.60;;;;;;5011092;28;20065;-49
2023/04/15 11:45:37;;;;;;;3.85;2.30;;;22.90;64.60;;;;;;5005309;28;20032;-49
2023/04/15 11:48:09;;;;;;;5.72;2.40;;;23.50;67.90;;;;;;5010936;28;20018;-49
2023/04/15 11:50:36;;;;;;;5.05;1.98;;;25.00;63.50;;;;;;5004260;28;20378;-48
2023/04/15 11:53:04;;;;;;;4.80;2.50;;;24.40;61.90;;;;;;5010614;28;20082;-51
2023/04/15 11:55:30;;;;;;;6.35;2.40;;;22.90;59.40;;;;;;5010948;28;20071;-46
2023/04/15 11:58:16;;;;;;;6.55;2.40;;;22.40;63.20;;;;;;5010835;28;20107;-49
2023/04/15 12:00:51;;;;;;;5.47;2.40;;;23.40;67.00;;;;;;5010987;28;20481;-47
2023/04/15 12:03:27;;;;;;;4.32;2.20;;;25.10;62.90;;;;;;5010709;28;20050;-46
2023/04/15 12:06:07;;;;;;;6.38;2.20;;;25.60;59.20;;;;;;5010382;28;20484;-47
2023/04/15 12:08:58;;;;;;;5.90;2.72;;;24.80;60.90;;;;;;5010255;28;20084;-50
2023/04/15 12:11:26;;;;;;;3.72;2.40;;;24.10;59.40;;;;;;5010401;28;20484;-47
2023/04/15 12:13:58;;;;;;;6.05;2.40;;;23.50;58.40;;;;;;5010786;28;20099;-46
2023/04/15 12:16:24;;;;;;;6.03;2.60;;;23.20;61.70;;;;;;5010509;28;20041;-46
2023/04/15 12:18:51;;;;;;;7.15;2.58;;;24.00;59.80;;;;;;5010324;28;20476;-50
2023/04/15 12:21:20;;;;;;;5.25;2.40;;;24.10;58.30;;;;;;5010467;28;20034;-50
2023/04/15 12:23:50;;;;;;;6.47;2.40;;;24.20;60.00;;;;;;5013879;28;20030;-47
2023/04/15 12:26:16;;;;;;;4.18;2.17;;;24.80;59.70;;;;;;5004008;28;20025;-48
2023/04/15 12:28:42;;;;;;;6.40;2.35;;;23.50;58.30;;;;;;5014602;28;20037;-46
2023/04/15 12:31:09;;;;;;;6.47;2.70;;;21.50;61.80;;;;;;5014564;28;20034;-46
2023/04/15 12:33:36;;;;;;;5.32;2.45;;;20.30;63.40;;;;;;5014745;28;20033;-46
2023/04/15 12:36:02;;;;;;;4.68;2.65;;;19.90;68.40;;;;;;5014353;28;20018;-47
2023/04/15 12:38:28;;;;;;;5.03;2.58;;;20.60;68.30;;;;;;5014534;28;20026;-46
2023/04/15 12:40:54;;;;;;;7.22;2.65;;;20.40;67.20;;;;;;5014430;28;20060;-50
2023/04/15 12:43:19;;;;;;;6.72;2.85;;;20.00;69.80;;;;;;5014254;28;20065;-50
2023/04/15 12:45:45;;;;;;;7.22;2.63;;;18.80;70.00;;;;;;5014330;28;20022;-48
2023/04/15 12:48:11;;;;;;;7.20;2.25;;;18.70;76.10;;;;;;5014137;28;20013;-47
2023/04/15 12:50:36;;;;;;;5.18;2.38;;;19.50;70.20;;;;;;5014435;28;20053;-44
2023/04/15 12:53:03;;;;;;;5.65;2.40;;;20.50;67.50;;;;;;5014484;28;20026;-46